createdAt,value
2018-05-12T00:01:50.807Z,62.79
2018-05-12T00:04:19.136Z,62.62
2018-05-12T00:06:47.472Z,63.08
2018-05-12T00:09:15.813Z,63.72
2018-05-12T00:11:44.827Z,64.60
2018-05-12T00:14:13.210Z,63.77
2018-05-12T00:16:42.534Z,64.03
2018-05-12T00:19:10.863Z,63.65
2018-05-12T00:21:39.185Z,64.05
2018-05-12T00:24:07.549Z,64.47
2018-05-12T00:26:35.928Z,64.26
2018-05-12T00:29:04.273Z,64.49
2018-05-12T00:31:32.606Z,65.72
2018-05-12T00:34:00.965Z,65.14
2018-05-12T00:36:29.290Z,64.78
2018-05-12T00:38:57.656Z,65.18
2018-05-12T00:41:27.439Z,65.49
2018-05-12T00:43:56.395Z,65.42
2018-05-12T00:46:24.719Z,65.51
2018-05-12T00:48:53.064Z,65.26
2018-05-12T00:51:21.412Z,65.09
2018-05-12T00:53:50.318Z,65.09
2018-05-12T00:56:18.649Z,64.73
2018-05-12T00:58:47.373Z,65.29
2018-05-12T01:01:16.521Z,65.26
2018-05-12T01:03:44.884Z,66.14
2018-05-12T01:06:13.222Z,65.85
2018-05-12T01:08:41.572Z,64.96
2018-05-12T01:11:09.917Z,65.71
2018-05-12T01:13:38.303Z,66.65
2018-05-12T01:16:06.614Z,66.60
2018-05-12T01:18:34.974Z,66.77
2018-05-12T01:21:03.315Z,66.82
2018-05-12T01:23:31.683Z,67.51
2018-05-12T01:26:00.008Z,67.92
2018-05-12T01:28:28.403Z,67.77
2018-05-12T01:30:56.784Z,67.39
2018-05-12T01:33:25.114Z,67.60
2018-05-12T01:35:53.462Z,67.88
2018-05-12T01:38:22.198Z,68.36
2018-05-12T01:40:50.566Z,68.26
2018-05-12T01:43:19.158Z,68.76
2018-05-12T01:45:47.536Z,69.07
2018-05-12T01:48:15.880Z,69.07
2018-05-12T01:50:44.229Z,69.49
2018-05-12T01:53:12.552Z,69.21
2018-05-12T01:55:40.918Z,68.92
2018-05-12T01:58:09.237Z,69.40
2018-05-12T02:00:37.580Z,69.46
2018-05-12T02:03:05.909Z,69.55
2018-05-12T02:05:34.684Z,69.51
2018-05-12T02:08:03.005Z,69.81
2018-05-12T02:10:31.351Z,69.93
2018-05-12T02:13:00.558Z,69.96
2018-05-12T02:15:28.914Z,70.21
2018-05-12T02:17:57.269Z,70.01
2018-05-12T02:20:25.671Z,70.24
2018-05-12T02:22:54.040Z,70.22
2018-05-12T02:25:22.383Z,70.06
2018-05-12T02:27:52.369Z,70.09
2018-05-12T02:30:21.307Z,69.76
2018-05-12T02:32:50.591Z,69.69
2018-05-12T02:35:18.927Z,69.98
2018-05-12T02:37:47.279Z,69.82
2018-05-12T02:40:15.590Z,70.67
2018-05-12T02:42:44.223Z,70.26
2018-05-12T02:45:12.577Z,70.92
2018-05-12T02:47:40.940Z,71.11
2018-05-12T02:50:09.280Z,71.37
2018-05-12T02:52:37.663Z,71.15
2018-05-12T02:55:06.059Z,71.25
2018-05-12T02:57:34.453Z,71.55
2018-05-12T03:00:02.784Z,71.54
2018-05-12T03:02:31.146Z,71.40
2018-05-12T03:04:59.489Z,71.23
2018-05-12T03:07:27.842Z,71.11
2018-05-12T03:09:56.170Z,71.33
2018-05-12T03:12:24.512Z,71.71
2018-05-12T03:14:53.267Z,72.13
2018-05-12T03:17:22.448Z,71.64
2018-05-12T03:19:51.583Z,71.41
2018-05-12T03:22:19.937Z,71.42
2018-05-12T03:24:48.737Z,71.48
2018-05-12T03:27:17.094Z,71.43
2018-05-12T03:29:45.417Z,71.60
2018-05-12T03:32:13.753Z,71.36
2018-05-12T03:34:42.171Z,71.10
2018-05-12T03:37:10.530Z,71.01
2018-05-12T03:39:38.879Z,70.79
2018-05-12T03:42:07.206Z,71.16
2018-05-12T03:44:35.552Z,71.37
2018-05-12T03:47:03.921Z,70.76
2018-05-12T03:49:32.606Z,71.06
2018-05-12T03:52:01.473Z,71.60
2018-05-12T03:54:30.048Z,71.14
2018-05-12T03:56:58.392Z,71.03
2018-05-12T03:59:26.736Z,70.23
2018-05-12T04:01:55.503Z,70.00
2018-05-12T04:04:35.665Z,70.13
2018-05-12T04:07:16.128Z,69.87
2018-05-12T04:09:57.419Z,70.23
2018-05-12T04:12:42.481Z,70.81
2018-05-12T04:15:10.838Z,70.45
2018-05-12T04:17:39.471Z,71.64
2018-05-12T04:20:07.849Z,71.95
2018-05-12T04:22:36.168Z,71.62
2018-05-12T04:25:05.241Z,71.64
2018-05-12T04:27:33.572Z,71.19
2018-05-12T04:30:02.276Z,70.88
2018-05-12T04:32:31.326Z,70.42
2018-05-12T04:35:00.598Z,70.92
2018-05-12T04:37:28.929Z,70.42
2018-05-12T04:39:57.394Z,70.22
2018-05-12T04:42:25.779Z,70.13
2018-05-12T04:44:54.937Z,70.25
2018-05-12T04:47:23.267Z,70.56
2018-05-12T04:49:51.593Z,70.52
2018-05-12T04:52:19.951Z,70.73
2018-05-12T04:54:48.282Z,70.79
2018-05-12T04:57:17.195Z,71.04
2018-05-12T04:59:45.535Z,70.56
2018-05-12T05:02:14.261Z,70.88
2018-05-12T05:04:42.703Z,70.83
2018-05-12T05:07:11.065Z,71.06
2018-05-12T05:09:40.236Z,71.45
2018-05-12T05:12:08.618Z,71.81
2018-05-12T05:14:36.951Z,72.26
2018-05-12T05:17:05.320Z,72.20
2018-05-12T05:19:33.649Z,73.10
2018-05-12T05:22:02.069Z,75.14
2018-05-12T05:24:30.406Z,75.26
2018-05-12T05:26:58.818Z,75.12
2018-05-12T05:29:27.381Z,74.10
2018-05-12T05:31:55.757Z,73.34
2018-05-12T05:34:24.139Z,73.16
2018-05-12T05:36:53.212Z,73.20
2018-05-12T05:39:21.546Z,72.17
2018-05-12T05:41:49.922Z,71.51
2018-05-12T05:44:18.327Z,70.62
2018-05-12T05:46:46.772Z,71.70
2018-05-12T05:49:15.569Z,71.97
2018-05-12T05:51:43.912Z,71.51
2018-05-12T05:54:13.318Z,70.87
2018-05-12T05:56:41.722Z,70.16
2018-05-12T05:59:10.092Z,69.63
2018-05-12T06:01:38.466Z,69.47
2018-05-12T06:04:06.837Z,69.28
2018-05-12T06:06:36.437Z,69.02
2018-05-12T06:09:05.789Z,68.26
2018-05-12T06:11:34.897Z,68.76
2018-05-12T06:14:03.676Z,68.92
2018-05-12T06:16:32.453Z,68.88
2018-05-12T06:19:00.810Z,68.82
2018-05-12T06:21:29.149Z,68.63
2018-05-12T06:23:57.553Z,68.30
2018-05-12T06:26:25.896Z,68.24
2018-05-12T06:28:54.253Z,67.57
2018-05-12T06:31:22.594Z,67.48
2018-05-12T06:33:51.000Z,67.74
2018-05-12T06:36:19.815Z,67.45
2018-05-12T06:38:48.168Z,66.87
2018-05-12T06:41:16.524Z,66.84
2018-05-12T06:43:44.863Z,67.24
2018-05-12T06:46:13.228Z,66.69
2018-05-12T06:48:41.574Z,66.01
2018-05-12T06:51:10.291Z,64.09
2018-05-12T06:53:38.629Z,64.57
2018-05-12T06:56:07.437Z,64.92
2018-05-12T06:58:37.362Z,63.59
2018-05-12T07:01:05.994Z,64.35
2018-05-12T07:03:34.333Z,63.17
2018-05-12T07:06:02.713Z,62.89
2018-05-12T07:08:31.051Z,63.09
2018-05-12T07:10:59.420Z,61.61
2018-05-12T07:13:27.896Z,61.53
2018-05-12T07:15:58.171Z,60.69
2018-05-12T07:18:26.636Z,60.55
2018-05-12T07:20:55.009Z,61.35
2018-05-12T07:23:23.353Z,60.68
2018-05-12T07:25:51.712Z,59.76
2018-05-12T07:28:20.062Z,59.72
2018-05-12T07:30:48.432Z,58.84
2018-05-12T07:33:16.769Z,58.19
2018-05-12T07:35:45.129Z,58.32
2018-05-12T07:38:13.474Z,58.31
2018-05-12T07:40:41.851Z,59.58
2018-05-12T07:43:10.192Z,59.45
2018-05-12T07:45:39.308Z,58.72
2018-05-12T07:48:07.603Z,58.11
2018-05-12T07:50:35.987Z,58.16
2018-05-12T07:53:04.327Z,57.96
2018-05-12T07:55:32.713Z,58.17
2018-05-12T07:58:01.045Z,57.95
2018-05-12T08:00:29.479Z,56.55
2018-05-12T08:02:58.504Z,55.85
2018-05-12T08:05:27.569Z,56.03
2018-05-12T08:07:55.903Z,55.50
2018-05-12T08:10:24.269Z,57.06
2018-05-12T08:12:52.646Z,55.37
2018-05-12T08:15:21.117Z,54.77
2018-05-12T08:17:49.464Z,56.09
2018-05-12T08:20:17.837Z,55.34
2018-05-12T08:22:46.842Z,54.44
2018-05-12T08:25:15.224Z,53.13
2018-05-12T08:27:43.562Z,53.77
2018-05-12T08:30:12.541Z,53.81
2018-05-12T08:32:40.922Z,54.69
2018-05-12T08:35:09.274Z,52.86
2018-05-12T08:37:37.629Z,53.17
2018-05-12T08:40:06.008Z,52.13
2018-05-12T08:42:34.352Z,51.93
2018-05-12T08:45:02.700Z,49.63
2018-05-12T08:47:31.468Z,49.00
2018-05-12T08:50:00.579Z,47.86
2018-05-12T08:52:29.380Z,50.18
2018-05-12T08:54:57.725Z,48.74
2018-05-12T08:57:26.110Z,48.54
2018-05-12T08:59:54.460Z,47.23
2018-05-12T09:02:22.832Z,47.13
2018-05-12T09:04:52.088Z,44.61
2018-05-12T09:07:20.450Z,42.89
2018-05-12T09:09:48.793Z,43.26
2018-05-12T09:12:17.163Z,43.51
2018-05-12T09:14:45.518Z,45.52
2018-05-12T09:17:14.106Z,45.39
2018-05-12T09:19:42.437Z,44.33
2018-05-12T09:22:11.032Z,43.72
2018-05-12T09:24:40.559Z,44.20
2018-05-12T09:27:09.504Z,44.44
2018-05-12T09:29:38.962Z,43.40
2018-05-12T09:32:07.356Z,39.41
2018-05-12T09:34:35.720Z,36.09
2018-05-12T09:37:04.070Z,36.77
2018-05-12T09:39:32.411Z,35.54
2018-05-12T09:42:01.117Z,35.58
2018-05-12T09:44:29.678Z,36.36
2018-05-12T09:46:58.022Z,37.41
2018-05-12T09:49:26.365Z,38.59
2018-05-12T09:51:55.070Z,39.40
2018-05-12T09:54:23.408Z,39.00
2018-05-12T09:56:52.771Z,39.93
2018-05-12T09:59:21.129Z,38.85
2018-05-12T10:01:49.479Z,39.90
2018-05-12T10:04:17.817Z,39.52
2018-05-12T10:06:47.017Z,39.41
2018-05-12T10:09:16.229Z,39.16
2018-05-12T10:11:44.593Z,39.32
2018-05-12T10:14:13.746Z,39.58
2018-05-12T10:16:42.106Z,39.99
2018-05-12T10:19:11.249Z,39.63
2018-05-12T10:21:39.613Z,37.81
2018-05-12T10:24:07.934Z,37.76
2018-05-12T10:26:37.430Z,37.77
2018-05-12T10:29:05.789Z,36.86
2018-05-12T10:31:34.843Z,36.43
2018-05-12T10:34:03.961Z,37.57
2018-05-12T10:36:32.311Z,37.19
2018-05-12T10:39:01.511Z,36.76
2018-05-12T10:41:29.859Z,35.63
2018-05-12T10:43:58.293Z,35.92
2018-05-12T10:46:26.693Z,36.41
2018-05-12T10:48:55.029Z,34.62
2018-05-12T10:51:23.930Z,33.83
2018-05-12T10:53:52.269Z,32.17
2018-05-12T10:56:21.601Z,34.16
2018-05-12T10:58:50.325Z,31.96
2018-05-12T11:01:18.931Z,31.72
2018-05-12T11:03:47.613Z,31.67
2018-05-12T11:06:15.968Z,30.19
2018-05-12T11:08:44.292Z,30.64
2018-05-12T11:11:12.660Z,30.48
2018-05-12T11:13:41.328Z,29.52
2018-05-12T11:16:10.002Z,29.16
2018-05-12T11:18:38.257Z,30.31
2018-05-12T11:21:06.615Z,29.47
2018-05-12T11:23:34.957Z,29.83
2018-05-12T11:26:03.717Z,29.46
2018-05-12T11:28:32.381Z,29.04
2018-05-12T11:31:00.726Z,29.06
2018-05-12T11:33:29.095Z,29.11
2018-05-12T11:35:57.777Z,28.37
2018-05-12T11:38:26.124Z,29.90
2018-05-12T11:40:54.462Z,28.36
2018-05-12T11:43:22.787Z,29.91
2018-05-12T11:45:51.442Z,30.00
2018-05-12T11:48:20.619Z,29.14
2018-05-12T11:50:48.981Z,29.38
2018-05-12T11:53:17.652Z,29.41
2018-05-12T11:55:45.978Z,28.61
2018-05-12T11:58:14.431Z,28.61
2018-05-12T12:00:42.721Z,27.20
2018-05-12T12:03:12.034Z,27.97
2018-05-12T12:05:40.377Z,30.13
2018-05-12T12:08:08.861Z,30.52
2018-05-12T12:10:37.196Z,29.82
2018-05-12T12:13:05.632Z,27.66
2018-05-12T12:15:34.679Z,28.55
2018-05-12T12:18:03.020Z,28.92
2018-05-12T12:20:31.346Z,28.63
2018-05-12T12:23:00.737Z,28.35
2018-05-12T12:25:29.393Z,26.96
2018-05-12T12:27:57.750Z,25.91
2018-05-12T12:30:26.975Z,26.80
2018-05-12T12:32:55.343Z,27.12
2018-05-12T12:35:23.702Z,28.44
2018-05-12T12:37:52.060Z,27.55
2018-05-12T12:40:20.427Z,27.54
2018-05-12T12:42:48.784Z,27.73
2018-05-12T12:45:17.112Z,26.55
2018-05-12T12:47:47.335Z,26.51
2018-05-12T12:50:16.597Z,26.55
2018-05-12T12:52:45.187Z,26.17
2018-05-12T12:55:13.947Z,27.86
2018-05-12T12:57:42.379Z,27.53
2018-05-12T13:00:10.647Z,26.24
2018-05-12T13:02:39.477Z,28.60
2018-05-12T13:05:07.809Z,29.19
2018-05-12T13:07:36.170Z,27.22
2018-05-12T13:10:04.502Z,25.63
2018-05-12T13:12:33.777Z,25.07
2018-05-12T13:15:02.134Z,25.22
2018-05-12T13:17:31.297Z,26.11
2018-05-12T13:19:59.752Z,25.57
2018-05-12T13:22:28.113Z,25.45
2018-05-12T13:24:56.438Z,25.23
2018-05-12T13:27:24.790Z,25.10
2018-05-12T13:29:53.172Z,24.04
2018-05-12T13:32:21.618Z,23.81
2018-05-12T13:34:49.931Z,25.25
2018-05-12T13:37:18.291Z,24.52
2018-05-12T13:39:46.629Z,24.96
2018-05-12T13:42:14.988Z,24.32
2018-05-12T13:44:43.313Z,24.11
2018-05-12T13:47:11.666Z,24.95
2018-05-12T13:49:39.993Z,23.16
2018-05-12T13:52:08.686Z,23.23
2018-05-12T13:54:37.312Z,24.12
2018-05-12T13:57:05.652Z,24.48
2018-05-12T13:59:33.997Z,23.57
2018-05-12T14:02:02.390Z,23.61
2018-05-12T14:04:31.271Z,23.12
2018-05-12T14:07:00.231Z,23.21
2018-05-12T14:09:28.573Z,23.05
2018-05-12T14:11:56.927Z,21.83
2018-05-12T14:14:25.270Z,21.77
2018-05-12T14:16:54.040Z,22.62
2018-05-12T14:19:23.152Z,22.34
2018-05-12T14:21:51.493Z,22.81
2018-05-12T14:24:20.691Z,22.34
2018-05-12T14:26:49.032Z,22.85
2018-05-12T14:29:17.672Z,22.18
2018-05-12T14:31:46.022Z,21.85
2018-05-12T14:34:14.361Z,21.54
2018-05-12T14:36:43.537Z,22.06
2018-05-12T14:39:11.862Z,22.36
2018-05-12T14:41:40.188Z,23.50
2018-05-12T14:44:08.538Z,23.91
2018-05-12T14:46:36.878Z,23.87
2018-05-12T14:49:05.455Z,22.82
2018-05-12T14:51:33.788Z,22.77
2018-05-12T14:54:02.137Z,22.63
2018-05-12T14:56:30.476Z,22.39
2018-05-12T14:58:58.823Z,23.67
2018-05-12T15:01:27.165Z,23.62
2018-05-12T15:03:55.513Z,23.97
2018-05-12T15:06:23.877Z,25.19
2018-05-12T15:08:52.468Z,26.32
2018-05-12T15:11:21.592Z,25.36
2018-05-12T15:13:49.960Z,24.23
2018-05-12T15:16:18.431Z,24.11
2018-05-12T15:18:47.123Z,24.02
2018-05-12T15:21:16.445Z,23.39
2018-05-12T15:23:45.249Z,24.40
2018-05-12T15:26:13.593Z,24.10
2018-05-12T15:28:41.953Z,23.80
2018-05-12T15:31:10.276Z,23.92
2018-05-12T15:33:38.615Z,23.81
2018-05-12T15:36:07.308Z,23.22
2018-05-12T15:38:35.612Z,23.73
2018-05-12T15:41:04.246Z,23.49
2018-05-12T15:43:32.591Z,23.90
2018-05-12T15:46:01.766Z,23.34
2018-05-12T15:48:30.632Z,23.05
2018-05-12T15:50:59.211Z,23.52
2018-05-12T15:53:27.537Z,23.63
2018-05-12T15:55:55.894Z,23.42
2018-05-12T15:58:24.232Z,23.46
2018-05-12T16:00:52.590Z,23.17
2018-05-12T16:03:20.919Z,23.28
2018-05-12T16:05:49.340Z,24.00
2018-05-12T16:08:17.664Z,23.49
2018-05-12T16:10:46.457Z,23.62
2018-05-12T16:13:15.457Z,24.79
2018-05-12T16:15:43.803Z,24.39
2018-05-12T16:18:12.120Z,23.74
2018-05-12T16:20:41.247Z,24.22
2018-05-12T16:23:10.912Z,24.35
2018-05-12T16:25:39.659Z,24.71
2018-05-12T16:28:08.013Z,24.75
2018-05-12T16:30:36.367Z,23.98
2018-05-12T16:33:05.109Z,24.76
2018-05-12T16:35:34.273Z,24.86
2018-05-12T16:38:02.996Z,24.42
2018-05-12T16:40:31.329Z,24.82
2018-05-12T16:42:59.685Z,24.75
2018-05-12T16:45:28.023Z,24.76
2018-05-12T16:47:56.607Z,24.94
2018-05-12T16:50:25.164Z,25.10
2018-05-12T16:52:54.424Z,24.91
2018-05-12T16:55:22.752Z,25.26
2018-05-12T16:57:51.107Z,25.99
2018-05-12T17:00:20.365Z,26.55
2018-05-12T17:02:48.718Z,27.09
2018-05-12T17:05:17.057Z,25.99
2018-05-12T17:07:45.444Z,26.17
2018-05-12T17:10:14.046Z,26.43
2018-05-12T17:12:42.418Z,26.21
2018-05-12T17:15:10.761Z,26.39
2018-05-12T17:17:39.157Z,26.64
2018-05-12T17:20:08.391Z,27.33
2018-05-12T17:22:36.766Z,27.93
2018-05-12T17:25:05.688Z,27.74
2018-05-12T17:27:34.046Z,27.61
2018-05-12T17:30:02.384Z,28.26
2018-05-12T17:32:31.677Z,28.40
2018-05-12T17:35:00.002Z,28.34
2018-05-12T17:37:29.208Z,28.23
2018-05-12T17:39:57.630Z,28.40
2018-05-12T17:42:26.968Z,28.81
2018-05-12T17:44:55.331Z,28.73
2018-05-12T17:47:23.737Z,29.19
2018-05-12T17:49:52.205Z,29.83
2018-05-12T17:52:20.549Z,30.02
2018-05-12T17:54:50.428Z,29.88
2018-05-12T17:57:18.857Z,30.46
2018-05-12T17:59:48.273Z,30.65
2018-05-12T18:02:17.518Z,31.23
2018-05-12T18:04:46.165Z,31.42
2018-05-12T18:07:14.522Z,33.06
2018-05-12T18:09:43.757Z,32.95
2018-05-12T18:12:12.426Z,33.14
2018-05-12T18:14:40.782Z,34.55
2018-05-12T18:17:09.893Z,34.24
2018-05-12T18:19:38.253Z,34.23
2018-05-12T18:22:07.411Z,34.16
2018-05-12T18:24:35.767Z,34.85
2018-05-12T18:27:04.338Z,34.78
2018-05-12T18:29:33.433Z,34.77
2018-05-12T18:32:02.394Z,34.94
2018-05-12T18:34:31.178Z,35.57
2018-05-12T18:36:59.506Z,36.16
2018-05-12T18:39:27.860Z,36.47
2018-05-12T18:41:56.195Z,37.01
2018-05-12T18:44:24.685Z,37.44
2018-05-12T18:46:53.066Z,38.00
2018-05-12T18:49:21.434Z,38.53
2018-05-12T18:51:49.775Z,38.77
2018-05-12T18:54:18.128Z,39.01
2018-05-12T18:56:46.471Z,39.06
2018-05-12T18:59:14.829Z,39.54
2018-05-12T19:01:43.157Z,40.50
2018-05-12T19:04:12.430Z,40.57
2018-05-12T19:06:40.808Z,40.59
2018-05-12T19:09:09.411Z,41.30
2018-05-12T19:11:38.029Z,40.52
2018-05-12T19:14:06.839Z,40.21
2018-05-12T19:16:35.269Z,40.67
2018-05-12T19:19:04.489Z,39.70
2018-05-12T19:21:33.822Z,39.53
2018-05-12T19:24:02.578Z,39.93
2018-05-12T19:26:31.834Z,40.69
2018-05-12T19:29:00.217Z,41.10
2018-05-12T19:31:29.471Z,41.47
2018-05-12T19:33:58.475Z,41.11
2018-05-12T19:36:27.436Z,41.06
2018-05-12T19:38:56.028Z,40.63
2018-05-12T19:41:24.345Z,40.98
2018-05-12T19:43:53.431Z,42.19
2018-05-12T19:46:21.789Z,43.17
2018-05-12T19:48:50.226Z,43.70
2018-05-12T19:51:18.558Z,44.13
2018-05-12T19:53:46.934Z,44.29
2018-05-12T19:56:15.265Z,44.28
2018-05-12T19:58:43.614Z,44.33
2018-05-12T20:01:12.008Z,45.05
2018-05-12T20:03:40.361Z,45.41
2018-05-12T20:06:08.760Z,45.57
2018-05-12T20:08:37.129Z,45.74
2018-05-12T20:11:05.478Z,43.97
2018-05-12T20:13:33.855Z,44.61
2018-05-12T20:16:02.693Z,44.52
2018-05-12T20:18:30.997Z,45.04
2018-05-12T20:21:00.255Z,45.44
2018-05-12T20:23:30.252Z,45.31
2018-05-12T20:25:58.600Z,44.82
2018-05-12T20:28:27.340Z,44.92
2018-05-12T20:30:55.761Z,45.12
2018-05-12T20:33:25.580Z,44.34
2018-05-12T20:35:54.142Z,44.08
2018-05-12T20:38:22.737Z,44.34
2018-05-12T20:40:51.911Z,44.40
2018-05-12T20:43:21.001Z,44.51
2018-05-12T20:45:49.328Z,44.40
2018-05-12T20:48:17.678Z,44.74
2018-05-12T20:50:46.003Z,45.11
2018-05-12T20:53:14.353Z,45.16
2018-05-12T20:55:43.511Z,45.06
2018-05-12T20:58:12.964Z,45.43
2018-05-12T21:00:41.731Z,46.08
2018-05-12T21:03:10.606Z,46.13
2018-05-12T21:05:38.934Z,46.27
2018-05-12T21:08:07.334Z,46.17
2018-05-12T21:10:35.657Z,46.76
2018-05-12T21:13:04.745Z,46.63
2018-05-12T21:15:33.107Z,46.70
2018-05-12T21:18:01.433Z,46.66
2018-05-12T21:20:29.861Z,47.30
2018-05-12T21:22:58.470Z,47.38
2018-05-12T21:25:26.798Z,47.61
2018-05-12T21:27:55.163Z,48.51
2018-05-12T21:30:24.726Z,48.93
2018-05-12T21:32:53.092Z,49.53
2018-05-12T21:35:22.257Z,49.88
2018-05-12T21:37:50.583Z,50.38
2018-05-12T21:40:18.959Z,51.07
2018-05-12T21:42:47.297Z,51.27
2018-05-12T21:45:15.660Z,51.29
2018-05-12T21:47:44.729Z,51.87
2018-05-12T21:50:13.183Z,51.96
2018-05-12T21:52:41.517Z,52.17
2018-05-12T21:55:09.927Z,52.73
2018-05-12T21:57:38.250Z,53.02
2018-05-12T22:00:06.623Z,53.88
2018-05-12T22:02:34.959Z,54.02
2018-05-12T22:05:03.318Z,54.05
2018-05-12T22:07:31.703Z,54.38
2018-05-12T22:10:00.023Z,54.43
2018-05-12T22:12:28.352Z,54.74
2018-05-12T22:14:57.185Z,55.21
2018-05-12T22:17:25.561Z,55.30
2018-05-12T22:19:53.927Z,55.58
2018-05-12T22:22:22.263Z,55.53
2018-05-12T22:24:51.450Z,55.73
2018-05-12T22:27:20.681Z,55.62
2018-05-12T22:29:49.050Z,55.73
2018-05-12T22:32:17.425Z,56.14
2018-05-12T22:34:45.779Z,56.36
2018-05-12T22:37:14.144Z,56.16
2018-05-12T22:39:42.590Z,56.77
2018-05-12T22:42:11.917Z,56.94
2018-05-12T22:44:41.871Z,56.54
2018-05-12T22:47:10.254Z,56.73
2018-05-12T22:49:39.333Z,56.71
2018-05-12T22:52:07.693Z,56.63
2018-05-12T22:54:36.042Z,57.63
2018-05-12T22:57:04.417Z,57.82
2018-05-12T22:59:32.771Z,57.92
2018-05-12T23:02:01.126Z,58.06
2018-05-12T23:04:29.854Z,57.72
2018-05-12T23:06:59.022Z,57.30
2018-05-12T23:09:27.359Z,57.36
2018-05-12T23:11:56.541Z,57.23
2018-05-12T23:14:24.890Z,57.16
2018-05-12T23:16:53.311Z,57.58
2018-05-12T23:19:21.655Z,57.73
2018-05-12T23:21:50.741Z,57.52
2018-05-12T23:24:19.117Z,57.73
2018-05-12T23:26:47.725Z,57.92
2018-05-12T23:29:16.154Z,58.43
2018-05-12T23:31:45.429Z,58.35
2018-05-12T23:34:13.854Z,58.13
2018-05-12T23:36:42.473Z,58.45
2018-05-12T23:39:10.844Z,58.08
2018-05-12T23:41:39.189Z,58.59
2018-05-12T23:44:07.553Z,58.89
2018-05-12T23:46:37.618Z,59.15
2018-05-12T23:49:05.981Z,58.54
2018-05-12T23:51:34.347Z,58.52
2018-05-12T23:54:02.720Z,59.16
2018-05-12T23:56:31.118Z,59.04
2018-05-12T23:59:01.310Z,59.33
